createdAt,value
2022-10-05T00:00:58.156Z,101875.81
2022-10-05T00:03:27.822Z,101865.28
2022-10-05T00:05:54.637Z,101860.84
2022-10-05T00:08:30.260Z,101881.38
2022-10-05T00:10:57.246Z,101874.28
2022-10-05T00:13:27.430Z,101865.59
2022-10-05T00:16:17.237Z,101870.56
2022-10-05T00:18:50.402Z,101872.41
2022-10-05T00:21:25.857Z,101880.31
2022-10-05T00:23:55.859Z,101868.25
2022-10-05T00:26:26.069Z,101861.91
2022-10-05T00:28:53.837Z,101852.94
2022-10-05T00:31:23.895Z,101851.38
2022-10-05T00:33:51.597Z,101853.50
2022-10-05T00:36:19.077Z,101855.66
2022-10-05T00:38:45.998Z,101852.72
2022-10-05T00:41:22.194Z,101851.16
2022-10-05T00:44:10.936Z,101849.34
2022-10-05T00:46:44.096Z,101849.59
2022-10-05T00:49:39.605Z,101842.50
2022-10-05T00:52:33.555Z,101843.56
2022-10-05T00:55:26.452Z,101840.16
2022-10-05T00:58:23.122Z,101836.47
2022-10-05T01:01:06.267Z,101841.19
2022-10-05T01:03:51.583Z,101841.19
2022-10-05T01:06:30.037Z,101825.97
2022-10-05T01:09:35.686Z,101823.34
2022-10-05T01:12:08.581Z,101832.03
2022-10-05T01:15:04.285Z,101811.06
2022-10-05T01:17:44.922Z,101818.47
2022-10-05T01:20:11.768Z,101823.22
2022-10-05T01:23:04.243Z,101821.66
2022-10-05T01:25:45.352Z,101820.88
2022-10-05T01:28:18.839Z,101802.47
2022-10-05T01:30:58.789Z,101794.59
2022-10-05T01:33:28.498Z,101785.63
2022-10-05T01:36:06.806Z,101776.47
2022-10-05T01:38:52.682Z,101769.16
2022-10-05T01:41:41.234Z,101768.94
2022-10-05T01:44:14.964Z,101770.59
2022-10-05T01:47:03.393Z,101768.25
2022-10-05T01:49:38.174Z,101768.84
2022-10-05T01:52:23.138Z,101760.44
2022-10-05T01:55:08.517Z,101759.47
2022-10-05T01:57:47.225Z,101756.34
2022-10-05T02:00:18.096Z,101756.13
2022-10-05T02:03:03.221Z,101746.97
2022-10-05T02:05:41.502Z,101734.69
2022-10-05T02:08:17.843Z,101734.97
2022-10-05T02:10:53.823Z,101726.13
2022-10-05T02:13:30.975Z,101722.19
2022-10-05T02:16:10.847Z,101718.28
2022-10-05T02:18:43.793Z,101731.44
2022-10-05T02:21:11.151Z,101730.66
2022-10-05T02:23:40.971Z,101725.97
2022-10-05T02:26:11.431Z,101726.75
2022-10-05T02:28:58.927Z,101729.38
2022-10-05T02:31:36.493Z,101719.44
2022-10-05T02:34:21.834Z,101714.19
2022-10-05T02:36:57.174Z,101702.09
2022-10-05T02:39:37.285Z,101700.56
2022-10-05T02:42:14.435Z,101716.88
2022-10-05T02:45:26.420Z,101720.59
2022-10-05T02:48:27.210Z,101718.44
2022-10-05T02:51:17.308Z,101710.56
2022-10-05T02:54:19.294Z,101701.09
2022-10-05T02:57:08.172Z,101696.66
2022-10-05T02:59:40.259Z,101696.16
2022-10-05T03:02:22.501Z,101687.47
2022-10-05T03:05:17.312Z,101711.72
2022-10-05T03:07:55.933Z,101706.47
2022-10-05T03:10:29.295Z,101698.56
2022-10-05T03:13:34.459Z,101695.44
2022-10-05T03:16:39.399Z,101698.84
2022-10-05T03:19:28.091Z,101701.19
2022-10-05T03:22:19.045Z,101705.38
2022-10-05T03:25:16.813Z,101702.47
2022-10-05T03:28:08.950Z,101702.47
2022-10-05T03:30:52.987Z,101708.50
2022-10-05T03:33:55.979Z,101702.47
2022-10-05T03:36:26.187Z,101709.31
2022-10-05T03:39:00.739Z,101707.16
2022-10-05T03:41:39.582Z,101710.56
2022-10-05T03:44:15.462Z,101695.56
2022-10-05T03:46:48.313Z,101698.97
2022-10-05T03:49:54.551Z,101694.22
2022-10-05T03:52:38.396Z,101701.31
2022-10-05T03:55:43.332Z,101704.94
2022-10-05T03:58:21.726Z,101701.53
2022-10-05T04:00:53.923Z,101695.50
2022-10-05T04:03:23.732Z,101702.03
2022-10-05T04:06:02.656Z,101693.66
2022-10-05T04:08:52.222Z,101682.09
2022-10-05T04:11:26.470Z,101678.66
2022-10-05T04:14:01.677Z,101671.59
2022-10-05T04:16:34.786Z,101678.38
2022-10-05T04:19:15.988Z,101676.25
2022-10-05T04:22:26.019Z,101674.41
2022-10-05T04:25:17.919Z,101671.00
2022-10-05T04:27:51.232Z,101668.38
2022-10-05T04:30:19.893Z,101676.25
2022-10-05T04:32:59.422Z,101662.84
2022-10-05T04:35:54.009Z,101663.59
2022-10-05T04:38:55.172Z,101659.44
2022-10-05T04:41:30.492Z,101656.81
2022-10-05T04:44:12.742Z,101657.59
2022-10-05T04:46:42.353Z,101654.66
2022-10-05T04:49:31.645Z,101653.09
2022-10-05T04:52:16.850Z,101649.69
2022-10-05T04:55:12.590Z,101655.22
2022-10-05T04:57:46.912Z,101658.94
2022-10-05T05:00:23.075Z,101647.63
2022-10-05T05:03:08.101Z,101651.56
2022-10-05T05:06:04.958Z,101643.94
2022-10-05T05:09:11.139Z,101647.94
2022-10-05T05:12:14.688Z,101639.47
2022-10-05T05:15:09.644Z,101638.19
2022-10-05T05:18:13.028Z,101634.81
2022-10-05T05:20:59.033Z,101631.66
2022-10-05T05:23:44.677Z,101621.94
2022-10-05T05:26:38.769Z,101631.09
2022-10-05T05:29:08.796Z,101630.31
2022-10-05T05:32:07.135Z,101629.81
2022-10-05T05:34:43.170Z,101621.16
2022-10-05T05:37:19.033Z,101631.66
2022-10-05T05:39:53.686Z,101630.88
2022-10-05T05:42:53.856Z,101638.00
2022-10-05T05:45:44.470Z,101632.25
2022-10-05T05:48:41.456Z,101633.03
2022-10-05T05:51:26.073Z,101633.03
2022-10-05T05:54:15.523Z,101627.47
2022-10-05T05:56:49.807Z,101628.53
2022-10-05T05:59:26.491Z,101626.72
2022-10-05T06:01:59.840Z,101624.84
2022-10-05T06:04:41.083Z,101622.72
2022-10-05T06:07:16.735Z,101617.47
2022-10-05T06:09:54.923Z,101622.72
2022-10-05T06:12:27.451Z,101627.19
2022-10-05T06:15:17.778Z,101632.19
2022-10-05T06:17:50.475Z,101634.81
2022-10-05T06:20:35.993Z,101624.28
2022-10-05T06:23:07.708Z,101631.09
2022-10-05T06:25:43.697Z,101623.97
2022-10-05T06:28:13.161Z,101633.72
2022-10-05T06:30:51.905Z,101626.63
2022-10-05T06:33:48.052Z,101623.69
2022-10-05T06:36:32.735Z,101626.81
2022-10-05T06:39:17.780Z,101631.78
2022-10-05T06:41:44.610Z,101626.25
2022-10-05T06:44:37.414Z,101632.78
2022-10-05T06:47:47.557Z,101633.56
2022-10-05T06:50:29.110Z,101639.78
2022-10-05T06:53:27.552Z,101635.03
2022-10-05T06:56:07.866Z,101629.75
2022-10-05T06:58:34.722Z,101632.88
2022-10-05T07:01:15.485Z,101635.50
2022-10-05T07:03:48.050Z,101643.31
2022-10-05T07:06:36.252Z,101636.22
2022-10-05T07:09:45.452Z,101637.78
2022-10-05T07:12:32.975Z,101635.63
2022-10-05T07:15:27.698Z,101635.03
2022-10-05T07:18:26.370Z,101634.97
2022-10-05T07:21:20.120Z,101634.38
2022-10-05T07:23:59.721Z,101630.38
2022-10-05T07:26:46.935Z,101630.88
2022-10-05T07:29:23.877Z,101636.59
2022-10-05T07:32:05.558Z,101634.78
2022-10-05T07:34:43.353Z,101635.28
2022-10-05T07:37:57.429Z,101645.78
2022-10-05T07:40:39.733Z,101636.03
2022-10-05T07:43:24.910Z,101645.47
2022-10-05T07:45:58.178Z,101639.72
2022-10-05T07:48:42.511Z,101640.53
2022-10-05T07:51:41.469Z,101633.13
2022-10-05T07:54:43.290Z,101630.22
2022-10-05T07:57:27.183Z,101635.97
2022-10-05T08:00:15.279Z,101619.88
2022-10-05T08:02:51.094Z,101630.59
2022-10-05T08:05:24.955Z,101632.16
2022-10-05T08:08:14.283Z,101630.03
2022-10-05T08:10:55.322Z,101631.31
2022-10-05T08:13:31.978Z,101614.44
2022-10-05T08:16:04.753Z,101626.25
2022-10-05T08:19:08.534Z,101621.16
2022-10-05T08:22:14.104Z,101616.38
2022-10-05T08:25:03.625Z,101616.59
2022-10-05T08:27:40.754Z,101607.81
2022-10-05T08:30:13.318Z,101607.03
2022-10-05T08:33:04.733Z,101599.81
2022-10-05T08:35:39.392Z,101610.06
2022-10-05T08:38:16.814Z,101598.44
2022-10-05T08:41:04.920Z,101597.38
2022-10-05T08:44:25.985Z,101599.41
2022-10-05T08:47:19.069Z,101599.13
2022-10-05T08:49:51.545Z,101601.94
2022-10-05T08:52:22.702Z,101600.84
2022-10-05T08:55:04.621Z,101600.00
2022-10-05T08:58:17.799Z,101596.94
2022-10-05T09:10:48.215Z,101588.81
2022-10-05T09:26:11.485Z,101583.28
2022-10-05T09:29:20.457Z,101580.22
2022-10-05T09:32:18.553Z,101578.06
2022-10-05T09:35:19.393Z,101576.56
2022-10-05T09:38:09.285Z,101569.03
2022-10-05T09:40:44.973Z,101571.22
2022-10-05T09:43:44.641Z,101564.94
2022-10-05T09:46:36.778Z,101561.75
2022-10-05T09:49:11.204Z,101564.72
2022-10-05T09:51:44.220Z,101563.34
2022-10-05T09:54:29.437Z,101557.63
2022-10-05T09:57:26.862Z,101561.97
2022-10-05T10:00:14.301Z,101552.25
2022-10-05T10:03:07.125Z,101552.63
2022-10-05T10:05:34.138Z,101551.56
2022-10-05T10:08:46.309Z,101539.94
2022-10-05T10:12:03.607Z,101538.41
2022-10-05T10:15:34.694Z,101537.63
2022-10-05T10:18:23.639Z,101534.72
2022-10-05T10:21:14.808Z,101530.19
2022-10-05T10:23:59.200Z,101529.09
2022-10-05T10:26:51.855Z,101531.59
2022-10-05T10:29:33.840Z,101523.97
2022-10-05T10:32:13.084Z,101534.38
2022-10-05T10:35:07.580Z,101527.06
2022-10-05T10:37:42.585Z,101525.38
2022-10-05T10:40:21.535Z,101524.91
2022-10-05T10:43:06.807Z,101513.59
2022-10-05T10:46:07.636Z,101520.09
2022-10-05T10:48:40.440Z,101514.38
2022-10-05T10:51:45.801Z,101520.09
2022-10-05T10:54:36.140Z,101521.78
2022-10-05T10:57:25.741Z,101513.41
2022-10-05T11:00:15.726Z,101510.16
2022-10-05T11:03:45.923Z,101504.22
2022-10-05T11:06:39.937Z,101510.44
2022-10-05T11:09:21.395Z,101503.31
2022-10-05T11:12:09.656Z,101501.75
2022-10-05T11:15:01.592Z,101505.34
2022-10-05T11:17:51.421Z,101498.03
2022-10-05T11:20:33.445Z,101500.97
2022-10-05T11:23:23.531Z,101506.25
2022-10-05T11:25:58.149Z,101498.84
2022-10-05T11:28:38.366Z,101496.81
2022-10-05T11:31:19.750Z,101500.84
2022-10-05T11:34:30.455Z,101494.94
2022-10-05T11:37:09.480Z,101492.44
2022-10-05T11:39:59.245Z,101483.91
2022-10-05T11:43:01.230Z,101475.81
2022-10-05T11:45:46.643Z,101472.25
2022-10-05T11:48:28.536Z,101476.13
2022-10-05T11:51:18.624Z,101480.63
2022-10-05T11:54:03.223Z,101473.94
2022-10-05T11:56:36.248Z,101477.19
2022-10-05T11:59:27.120Z,101475.28
2022-10-05T12:02:13.621Z,101468.59
2022-10-05T12:04:56.722Z,101469.97
2022-10-05T12:07:43.936Z,101462.66
2022-10-05T12:10:41.521Z,101462.66
2022-10-05T12:13:19.554Z,101462.97
2022-10-05T12:15:52.269Z,101456.56
2022-10-05T12:18:39.321Z,101452.06
2022-10-05T12:21:23.645Z,101455.50
2022-10-05T12:24:08.787Z,101455.59
2022-10-05T12:27:03.715Z,101459.44
2022-10-05T12:29:46.521Z,101450.50
2022-10-05T12:32:36.211Z,101450.50
2022-10-05T12:35:47.528Z,101445.88
2022-10-05T12:38:25.717Z,101437.06
2022-10-05T12:41:05.690Z,101432.25
2022-10-05T12:43:44.956Z,101439.13
2022-10-05T12:46:30.293Z,101434.53
2022-10-05T12:49:18.700Z,101445.00
2022-10-05T12:52:01.149Z,101442.81
2022-10-05T12:54:42.589Z,101443.19
2022-10-05T12:57:41.065Z,101435.91
2022-10-05T13:00:21.886Z,101441.72
2022-10-05T13:03:04.280Z,101440.34
2022-10-05T13:05:40.483Z,101442.75
2022-10-05T13:08:13.370Z,101442.31
2022-10-05T13:10:53.459Z,101443.56
2022-10-05T13:13:40.475Z,101434.28
2022-10-05T13:16:38.702Z,101436.47
2022-10-05T13:19:33.715Z,101435.56
2022-10-05T13:22:06.672Z,101437.75
2022-10-05T13:24:43.955Z,101431.53
2022-10-05T13:27:18.138Z,101432.97
2022-10-05T13:30:13.688Z,101436.59
2022-10-05T13:32:43.114Z,101440.00
2022-10-05T13:35:34.641Z,101436.25
2022-10-05T13:38:30.900Z,101433.75
2022-10-05T13:41:36.847Z,101438.72
2022-10-05T13:44:15.840Z,101431.88
2022-10-05T13:46:54.272Z,101444.09
2022-10-05T13:49:49.803Z,101434.09
2022-10-05T13:52:48.032Z,101428.75
2022-10-05T13:55:39.151Z,101426.94
2022-10-05T13:58:23.522Z,101421.91
2022-10-05T14:00:55.610Z,101427.00
2022-10-05T14:03:27.577Z,101428.34
2022-10-05T14:06:00.165Z,101436.97
2022-10-05T14:08:30.706Z,101423.63
2022-10-05T14:10:58.412Z,101430.56
2022-10-05T14:13:49.452Z,101413.59
2022-10-05T14:16:23.057Z,101429.56
2022-10-05T14:19:11.378Z,101429.88
2022-10-05T14:21:53.898Z,101434.69
2022-10-05T14:24:45.247Z,101432.72
2022-10-05T14:27:30.149Z,101433.47
2022-10-05T14:29:59.868Z,101431.81
2022-10-05T14:32:32.154Z,101437.59
2022-10-05T14:35:28.755Z,101438.53
2022-10-05T14:37:59.806Z,101437.28
2022-10-05T14:40:35.552Z,101445.00
2022-10-05T14:43:14.662Z,101453.78
2022-10-05T14:45:56.432Z,101449.97
2022-10-05T14:48:24.631Z,101463.56
2022-10-05T14:51:03.479Z,101452.69
2022-10-05T14:54:00.434Z,101459.09
2022-10-05T14:56:46.523Z,101468.00
2022-10-05T14:59:40.327Z,101462.09
2022-10-05T15:02:23.305Z,101468.81
2022-10-05T15:05:07.954Z,101461.97
2022-10-05T15:07:43.930Z,101461.06
2022-10-05T15:10:31.015Z,101471.09
2022-10-05T15:13:13.544Z,101472.75
2022-10-05T15:16:00.759Z,101466.16
2022-10-05T15:18:45.638Z,101453.00
2022-10-05T15:21:12.562Z,101454.63
2022-10-05T15:23:49.091Z,101449.81
2022-10-05T15:26:24.697Z,101450.59
2022-10-05T15:29:19.444Z,101454.50
2022-10-05T15:32:07.030Z,101453.44
2022-10-05T15:34:33.851Z,101462.75
2022-10-05T15:37:21.126Z,101463.25
2022-10-05T15:39:55.160Z,101463.41
2022-10-05T15:42:32.461Z,101470.09
2022-10-05T15:45:20.871Z,101464.06
2022-10-05T15:47:53.246Z,101460.16
2022-10-05T15:50:26.433Z,101457.03
2022-10-05T15:53:08.503Z,101471.34
2022-10-05T15:55:54.895Z,101474.28
2022-10-05T15:58:24.604Z,101470.88
2022-10-05T16:01:06.672Z,101469.66
2022-10-05T16:03:51.373Z,101470.72
2022-10-05T16:07:12.546Z,101458.94
2022-10-05T16:10:02.468Z,101467.94
2022-10-05T16:12:56.817Z,101461.38
2022-10-05T16:15:42.912Z,101476.59
2022-10-05T16:18:42.584Z,101470.69
2022-10-05T16:21:24.275Z,101483.75
2022-10-05T16:24:13.282Z,101487.31
2022-10-05T16:26:56.682Z,101485.59
2022-10-05T16:29:47.355Z,101484.66
2022-10-05T16:32:26.182Z,101488.38
2022-10-05T16:35:29.258Z,101488.25
2022-10-05T16:38:29.441Z,101494.13
2022-10-05T16:41:09.715Z,101489.47
2022-10-05T16:43:49.471Z,101491.94
2022-10-05T16:46:22.090Z,101493.03
2022-10-05T16:49:10.798Z,101495.53
2022-10-05T16:52:01.346Z,101506.38
2022-10-05T16:54:38.296Z,101510.38
2022-10-05T16:57:17.690Z,101498.59
2022-10-05T17:00:18.327Z,101507.91
2022-10-05T17:03:40.298Z,101505.84
2022-10-05T17:06:13.467Z,101511.94
2022-10-05T17:08:49.939Z,101518.28
2022-10-05T17:11:38.084Z,101516.25
2022-10-05T17:14:32.313Z,101513.16
2022-10-05T17:17:08.223Z,101510.06
2022-10-05T17:20:07.205Z,101518.25
2022-10-05T17:22:46.622Z,101520.44
2022-10-05T17:25:45.787Z,101510.94
2022-10-05T17:28:18.467Z,101516.53
2022-10-05T17:31:07.867Z,101518.72
2022-10-05T17:33:54.926Z,101514.97
2022-10-05T17:36:21.801Z,101520.25
2022-10-05T17:38:52.003Z,101519.47
2022-10-05T17:41:24.742Z,101526.91
2022-10-05T17:44:10.180Z,101541.34
2022-10-05T17:46:59.722Z,101539.31
2022-10-05T17:49:39.209Z,101540.88
2022-10-05T17:52:44.005Z,101546.16
2022-10-05T17:55:38.386Z,101548.31
2022-10-05T17:58:23.958Z,101545.66
2022-10-05T18:00:56.929Z,101552.47
2022-10-05T18:03:39.056Z,101552.47
2022-10-05T18:06:33.475Z,101558.25
2022-10-05T18:09:17.169Z,101551.41
2022-10-05T18:12:02.802Z,101556.22
2022-10-05T18:14:55.865Z,101543.50
2022-10-05T18:17:47.660Z,101550.94
2022-10-05T18:20:26.707Z,101554.06
2022-10-05T18:23:03.944Z,101560.38
2022-10-05T18:25:42.476Z,101561.19
2022-10-05T18:28:24.750Z,101560.91
2022-10-05T18:30:59.355Z,101564.00
2022-10-05T18:33:49.477Z,101564.00
2022-10-05T18:36:35.442Z,101569.75
2022-10-05T18:39:46.213Z,101564.47
2022-10-05T18:42:34.966Z,101565.53
2022-10-05T18:45:01.811Z,101574.22
2022-10-05T18:47:48.602Z,101570.81
2022-10-05T18:50:22.694Z,101583.69
2022-10-05T18:53:13.887Z,101581.53
2022-10-05T18:56:03.862Z,101584.94
2022-10-05T18:58:36.911Z,101589.91
2022-10-05T19:01:21.569Z,101594.56
2022-10-05T19:04:25.711Z,101608.22
2022-10-05T19:07:10.751Z,101611.34
2022-10-05T19:09:43.755Z,101612.13
2022-10-05T19:12:19.965Z,101614.91
2022-10-05T19:15:06.496Z,101622.53
2022-10-05T19:17:55.331Z,101627.97
2022-10-05T19:20:45.072Z,101628.75
2022-10-05T19:23:53.949Z,101631.38
2022-10-05T19:26:52.326Z,101629.84
2022-10-05T19:29:56.361Z,101631.84
2022-10-05T19:32:54.740Z,101641.34
2022-10-05T19:36:00.348Z,101648.16
2022-10-05T19:38:49.957Z,101653.91
2022-10-05T19:42:00.805Z,101658.41
2022-10-05T19:45:04.976Z,101677.66
2022-10-05T19:47:52.455Z,101692.41
2022-10-05T19:50:25.788Z,101739.88
2022-10-05T19:53:08.355Z,101763.75
2022-10-05T19:55:47.272Z,101753.72
2022-10-05T19:58:23.771Z,101764.72
2022-10-05T20:01:06.875Z,101772.50
2022-10-05T20:03:38.166Z,101771.06
2022-10-05T20:06:07.341Z,101780.63
2022-10-05T20:08:43.865Z,101780.34
2022-10-05T20:11:15.312Z,101782.94
2022-10-05T20:13:46.056Z,101788.88
2022-10-05T20:16:31.404Z,101791.38
2022-10-05T20:19:16.659Z,101809.31
2022-10-05T20:21:49.287Z,101811.22
2022-10-05T20:24:22.489Z,101815.19
2022-10-05T20:27:07.220Z,101835.97
2022-10-05T20:29:45.035Z,101831.31
2022-10-05T20:32:15.367Z,101844.47
2022-10-05T20:34:45.735Z,101851.84
2022-10-05T20:37:17.954Z,101853.97
2022-10-05T20:39:45.268Z,101846.66
2022-10-05T20:42:12.337Z,101845.09
2022-10-05T20:44:39.059Z,101855.09
2022-10-05T20:47:08.906Z,101864.81
2022-10-05T20:49:37.396Z,101862.19
2022-10-05T20:52:06.498Z,101876.88
2022-10-05T20:54:33.514Z,101876.09
2022-10-05T20:57:00.508Z,101882.13
2022-10-05T20:59:27.455Z,101890.25
2022-10-05T21:01:54.625Z,101899.72
2022-10-05T21:04:23.874Z,101904.19
2022-10-05T21:06:51.908Z,101916.50
2022-10-05T21:09:21.471Z,101924.69
2022-10-05T21:11:51.653Z,101948.59
2022-10-05T21:14:18.893Z,101953.84
2022-10-05T21:16:46.066Z,101950.75
2022-10-05T21:19:14.724Z,101948.72
2022-10-05T21:21:44.035Z,101940.13
2022-10-05T21:24:13.800Z,101933.06
2022-10-05T21:26:41.798Z,101937.31
2022-10-05T21:29:12.593Z,101938.63
2022-10-05T21:31:40.738Z,101934.97
2022-10-05T21:34:08.079Z,101936.03
2022-10-05T21:36:35.292Z,101945.75
2022-10-05T21:39:02.209Z,101941.81
2022-10-05T21:41:29.003Z,101944.72
2022-10-05T21:43:55.852Z,101953.13
2022-10-05T21:46:26.697Z,101955.00
2022-10-05T21:48:54.795Z,101969.41
2022-10-05T21:51:25.340Z,101960.00
2022-10-05T21:53:57.367Z,101971.00
2022-10-05T21:56:33.023Z,101970.00
2022-10-05T21:59:02.060Z,101976.31
2022-10-05T22:01:29.218Z,101979.50
2022-10-05T22:03:57.103Z,101993.91
2022-10-05T22:06:23.949Z,101993.69
2022-10-05T22:08:50.652Z,102000.22
2022-10-05T22:11:18.272Z,102006.56
2022-10-05T22:13:50.610Z,102011.28
2022-10-05T22:16:20.930Z,102014.72
2022-10-05T22:18:49.057Z,102013.69
2022-10-05T22:21:16.698Z,102021.81
2022-10-05T22:23:45.562Z,102030.22
2022-10-05T22:26:15.156Z,102033.88
2022-10-05T22:28:42.779Z,102048.31
2022-10-05T22:31:10.860Z,102054.59
2022-10-05T22:33:37.679Z,102056.69
2022-10-05T22:36:05.957Z,102056.72
2022-10-05T22:38:33.096Z,102068.25
2022-10-05T22:41:00.088Z,102066.94
2022-10-05T22:43:29.643Z,102074.03
2022-10-05T22:45:56.589Z,102075.34
2022-10-05T22:48:23.452Z,102086.59
2022-10-05T22:50:50.370Z,102083.47
2022-10-05T22:53:17.157Z,102082.41
2022-10-05T22:55:43.964Z,102093.94
2022-10-05T22:58:10.732Z,102099.19
2022-10-05T23:00:59.195Z,102111.78
2022-10-05T23:03:24.234Z,102104.16
2022-10-05T23:05:57.483Z,102111.00
2022-10-05T23:08:24.552Z,102113.88
2022-10-05T23:10:52.631Z,102110.72
2022-10-05T23:13:19.374Z,102114.63
2022-10-05T23:15:46.093Z,102125.91
2022-10-05T23:18:12.913Z,102123.81
2022-10-05T23:20:40.332Z,102137.16
2022-10-05T23:23:07.049Z,102132.22
2022-10-05T23:25:33.837Z,102136.94
2022-10-05T23:28:01.957Z,102142.16
2022-10-05T23:30:28.920Z,102142.16
2022-10-05T23:32:55.762Z,102142.94
2022-10-05T23:35:22.556Z,102147.41
2022-10-05T23:37:49.315Z,102149.22
2022-10-05T23:40:16.117Z,102157.38
2022-10-05T23:42:42.850Z,102165.22
2022-10-05T23:45:11.092Z,102169.41
2022-10-05T23:47:38.444Z,102173.84
2022-10-05T23:50:07.132Z,102166.78
2022-10-05T23:52:35.304Z,102180.94
2022-10-05T23:55:03.587Z,102187.22
2022-10-05T23:57:31.062Z,102181.44
2022-10-05T23:59:57.782Z,102194.53
